Time;durP1;ratioP1;P1;durP2;ratioP2;P2;SDS_P1;SDS_P2;PMS_P1;PMS_P2;Temp;Humidity;BMP_temperature;BMP_pressure;BME280_temperature;BME280_humidity;BME280_pressure;Samples;Min_cycle;Max_cycle;Signal;HPM_P1;HPM_P2
2022/10/05 00:01:32;;;;;;;6.43;2.17;;;13.50;90.60;;;;;;4987492;28;20034;-76
2022/10/05 00:04:18;;;;;;;5.38;2.42;;;13.50;90.60;;;;;;4985253;28;20121;-76
2022/10/05 00:06:56;;;;;;;4.13;2.78;;;13.50;90.80;;;;;;4985578;28;20046;-76
2022/10/05 00:09:22;;;;;;;5.45;2.40;;;13.50;90.80;;;;;;4987870;28;20322;-76
2022/10/05 00:11:49;;;;;;;9.52;2.63;;;13.40;90.80;;;;;;4990976;28;20038;-76
2022/10/05 00:14:30;;;;;;;5.57;2.53;;;13.50;90.80;;;;;;4988400;28;20061;-76
2022/10/05 00:16:56;;;;;;;5.30;2.67;;;13.40;90.70;;;;;;4982499;28;20030;-76
2022/10/05 00:19:36;;;;;;;3.85;2.20;;;13.40;90.90;;;;;;4984446;28;20173;-76
2022/10/05 00:22:26;;;;;;;3.75;2.30;;;13.40;90.80;;;;;;4988018;28;20532;-76
2022/10/05 00:24:57;;;;;;;4.22;2.47;;;13.40;91.00;;;;;;4992639;28;20113;-76
2022/10/05 00:27:25;;;;;;;3.50;2.20;;;13.30;91.00;;;;;;4990870;28;20465;-76
2022/10/05 00:29:53;;;;;;;3.38;2.20;;;13.30;91.00;;;;;;4992641;28;20072;-76
2022/10/05 00:32:19;;;;;;;5.07;2.58;;;13.30;91.00;;;;;;4990995;28;20062;-76
2022/10/05 00:34:46;;;;;;;3.10;2.00;;;13.30;91.10;;;;;;4998303;28;20058;-76
2022/10/05 00:37:12;;;;;;;2.45;2.10;;;13.30;91.10;;;;;;4990514;28;20397;-76
2022/10/05 00:39:39;;;;;;;2.83;2.30;;;13.30;91.30;;;;;;4991743;28;20034;-76
2022/10/05 00:42:11;;;;;;;4.25;2.70;;;13.20;91.20;;;;;;4997187;28;20991;-76
2022/10/05 00:44:47;;;;;;;5.32;2.47;;;13.20;91.40;;;;;;4993197;28;20030;-76
2022/10/05 00:47:18;;;;;;;4.13;2.22;;;13.20;91.30;;;;;;4984928;28;20065;-76
2022/10/05 00:50:25;;;;;;;5.30;2.60;;;13.20;91.30;;;;;;4989755;28;20529;-76
2022/10/05 00:53:16;;;;;;;7.85;2.83;;;13.30;91.20;;;;;;4988801;28;20107;-76
2022/10/05 00:56:03;;;;;;;4.25;2.58;;;13.20;91.30;;;;;;4990459;28;20033;-75
2022/10/05 00:58:55;;;;;;;3.08;2.20;;;13.30;91.20;;;;;;4975902;28;20048;-76
2022/10/05 01:01:32;;;;;;;5.00;2.25;;;13.20;91.10;;;;;;5004552;28;20061;-76
2022/10/05 01:04:20;;;;;;;5.28;2.72;;;13.30;91.00;;;;;;4994069;28;20498;-76
2022/10/05 01:07:21;;;;;;;8.77;2.70;;;13.30;90.90;;;;;;4992244;28;20038;-76
2022/10/05 01:10:09;;;;;;;3.20;1.95;;;13.30;90.90;;;;;;4989790;28;20046;-73
2022/10/05 01:13:13;;;;;;;4.03;2.47;;;13.40;90.80;;;;;;4989389;28;20920;-73
2022/10/05 01:15:50;;;;;;;5.53;2.40;;;13.40;90.80;;;;;;4991181;28;20065;-72
2022/10/05 01:18:37;;;;;;;4.05;2.10;;;13.40;90.80;;;;;;4991672;28;20413;-72
2022/10/05 01:21:23;;;;;;;5.47;2.63;;;13.40;90.80;;;;;;4991938;28;20134;-72
2022/10/05 01:24:14;;;;;;;7.70;2.67;;;13.40;90.70;;;;;;4984976;28;20031;-73
2022/10/05 01:27:04;;;;;;;5.97;2.08;;;13.50;90.60;;;;;;4978213;28;20497;-73
2022/10/05 01:29:58;;;;;;;3.78;2.38;;;13.40;90.60;;;;;;5003900;28;20045;-72
2022/10/05 01:32:42;;;;;;;6.55;3.08;;;13.40;90.80;;;;;;4993689;28;20038;-72
2022/10/05 01:35:16;;;;;;;4.35;2.38;;;13.30;90.70;;;;;;4991365;28;20107;-73
2022/10/05 01:37:48;;;;;;;4.47;2.58;;;13.30;90.70;;;;;;4992640;28;20033;-72
2022/10/05 01:40:46;;;;;;;5.25;2.40;;;13.20;90.80;;;;;;4989795;28;20023;-73
2022/10/05 01:43:20;;;;;;;4.63;2.17;;;13.20;91.00;;;;;;4987688;28;20040;-72
2022/10/05 01:45:59;;;;;;;4.60;2.10;;;13.20;91.00;;;;;;4988552;28;20037;-72
2022/10/05 01:48:43;;;;;;;2.83;2.10;;;13.20;91.00;;;;;;4989650;28;20049;-72
2022/10/05 01:51:32;;;;;;;8.93;2.40;;;13.20;90.80;;;;;;4988906;28;20029;-73
2022/10/05 01:54:16;;;;;;;3.22;1.77;;;13.20;90.90;;;;;;4997443;28;20042;-73
2022/10/05 01:56:55;;;;;;;6.68;2.35;;;13.20;90.80;;;;;;5003739;28;20113;-73
2022/10/05 01:59:27;;;;;;;3.33;2.20;;;13.10;91.00;;;;;;4974149;28;20081;-72
2022/10/05 02:02:08;;;;;;;3.45;2.25;;;13.20;91.00;;;;;;4988981;28;20030;-72
2022/10/05 02:04:45;;;;;;;4.47;2.55;;;13.10;91.00;;;;;;4991850;28;20441;-73
2022/10/05 02:07:22;;;;;;;3.60;2.00;;;13.10;91.00;;;;;;4987061;28;20409;-73
2022/10/05 02:09:52;;;;;;;;;;;13.00;91.10;;;;;;4993313;28;20030;-72
2022/10/05 02:12:21;;;;;;;20.67;2.83;;;13.10;91.20;;;;;;4990433;28;20376;-73
2022/10/05 02:14:53;;;;;;;3.90;2.50;;;13.00;91.20;;;;;;4993343;28;20033;-72
2022/10/05 02:17:26;;;;;;;5.00;2.33;;;13.00;91.20;;;;;;4990760;28;20030;-72
2022/10/05 02:19:58;;;;;;;4.65;2.38;;;12.90;91.30;;;;;;4998558;28;20919;-72
2022/10/05 02:22:47;;;;;;;3.83;2.00;;;12.90;91.50;;;;;;4992193;28;20438;-73
2022/10/05 02:25:18;;;;;;;4.07;2.30;;;12.90;91.50;;;;;;4988337;28;20072;-72
2022/10/05 02:27:59;;;;;;;5.90;2.58;;;12.90;91.50;;;;;;5006756;28;20031;-72
2022/10/05 02:30:28;;;;;;;3.95;2.22;;;12.90;91.30;;;;;;4986582;28;20035;-72
2022/10/05 02:33:00;;;;;;;3.17;1.95;;;12.80;91.20;;;;;;4987658;28;20031;-73
2022/10/05 02:35:26;;;;;;;3.55;2.33;;;12.80;91.40;;;;;;4988015;28;20038;-72
2022/10/05 02:38:13;;;;;;;7.03;2.50;;;12.80;91.40;;;;;;4990130;28;20034;-73
2022/10/05 02:40:51;;;;;;;4.72;2.00;;;12.80;91.30;;;;;;4994555;28;20033;-72
2022/10/05 02:43:55;;;;;;;4.82;2.20;;;12.80;91.40;;;;;;4987489;28;20114;-72
2022/10/05 02:46:50;;;;;;;4.78;2.05;;;12.70;91.50;;;;;;4985329;28;20034;-72
2022/10/05 02:49:25;;;;;;;3.88;2.08;;;12.70;91.50;;;;;;4975046;28;20038;-72
2022/10/05 02:52:03;;;;;;;4.70;2.33;;;12.70;91.50;;;;;;5008690;28;20034;-72
2022/10/05 02:54:32;;;;;;;5.00;2.40;;;12.70;91.60;;;;;;4994796;28;20030;-72
2022/10/05 02:57:07;;;;;;;4.53;2.50;;;12.70;91.80;;;;;;4986625;28;20030;-73
2022/10/05 02:59:38;;;;;;;3.75;2.30;;;12.70;91.60;;;;;;4995211;28;20026;-72
2022/10/05 03:02:26;;;;;;;5.40;2.13;;;12.70;91.60;;;;;;4989032;28;20124;-72
2022/10/05 03:04:55;;;;;;;3.03;1.98;;;12.70;91.60;;;;;;4978573;28;20129;-72
2022/10/05 03:07:47;;;;;;;3.22;1.73;;;12.70;91.50;;;;;;4989063;28;20394;-73
2022/10/05 03:10:19;;;;;;;3.17;1.80;;;12.60;91.70;;;;;;4974350;28;20752;-72
2022/10/05 03:12:56;;;;;;;7.35;2.10;;;12.60;91.70;;;;;;5004803;28;20633;-73
2022/10/05 03:15:39;;;;;;;2.70;2.13;;;12.70;91.90;;;;;;4970978;28;20113;-73
2022/10/05 03:18:11;;;;;;;7.28;2.55;;;12.70;91.80;;;;;;5003900;28;20069;-73
2022/10/05 03:20:52;;;;;;;3.83;1.95;;;12.70;91.70;;;;;;4988001;28;20130;-72
2022/10/05 03:23:31;;;;;;;2.17;1.80;;;12.80;91.70;;;;;;4987957;28;20123;-73
2022/10/05 03:26:17;;;;;;;4.10;2.28;;;12.80;91.50;;;;;;4987007;28;20058;-72
2022/10/05 03:28:48;;;;;;;2.53;1.80;;;12.80;91.50;;;;;;4987678;28;20567;-72
2022/10/05 03:31:52;;;;;;;4.43;2.20;;;12.80;91.60;;;;;;4987388;28;20041;-73
2022/10/05 03:34:39;;;;;;;6.50;2.72;;;12.80;91.50;;;;;;4965598;28;20034;-72
2022/10/05 03:37:26;;;;;;;6.75;2.15;;;12.90;91.40;;;;;;4979377;28;20044;-73
2022/10/05 03:40:12;;;;;;;4.80;2.35;;;12.90;91.30;;;;;;5000131;28;20033;-73
2022/10/05 03:43:02;;;;;;;3.50;2.13;;;12.90;91.20;;;;;;4987405;28;20030;-72
2022/10/05 03:45:40;;;;;;;3.97;2.05;;;12.90;91.20;;;;;;4989692;28;20035;-72
2022/10/05 03:48:22;;;;;;;3.15;1.80;;;12.90;91.20;;;;;;4988517;28;20041;-72
2022/10/05 03:51:03;;;;;;;3.70;2.13;;;13.00;91.10;;;;;;4991443;28;20844;-72
2022/10/05 03:53:58;;;;;;;4.18;2.30;;;13.00;91.00;;;;;;4985866;28;20431;-72
2022/10/05 03:56:35;;;;;;;2.17;1.70;;;13.10;91.00;;;;;;4986256;28;20121;-73
2022/10/05 03:59:25;;;;;;;3.80;2.30;;;13.10;90.90;;;;;;4988900;28;20243;-73
2022/10/05 04:01:59;;;;;;;5.88;2.45;;;13.10;90.80;;;;;;5006759;28;20149;-72
2022/10/05 04:04:58;;;;;;;5.22;2.10;;;13.10;90.60;;;;;;4990750;28;20031;-76
2022/10/05 04:07:32;;;;;;;3.35;2.15;;;13.20;90.70;;;;;;4948622;28;20034;-75
2022/10/05 04:10:02;;;;;;;4.07;2.28;;;13.20;90.60;;;;;;4993640;28;20151;-76
2022/10/05 04:12:37;;;;;;;5.90;2.42;;;13.20;90.60;;;;;;4994639;28;20137;-75
2022/10/05 04:15:07;;;;;;;4.15;2.00;;;13.20;90.60;;;;;;4988724;28;20030;-76
2022/10/05 04:17:39;;;;;;;5.70;1.80;;;13.20;90.60;;;;;;4990102;28;20246;-75
2022/10/05 04:20:44;;;;;;;4.07;2.05;;;13.20;90.70;;;;;;4983162;28;20500;-75
2022/10/05 04:23:36;;;;;;;3.35;2.03;;;13.20;90.70;;;;;;4928043;29;20031;-76
2022/10/05 04:26:10;;;;;;;2.88;1.90;;;13.20;90.60;;;;;;4980691;28;20058;-76
2022/10/05 04:28:47;;;;;;;4.85;2.10;;;13.20;90.60;;;;;;4980454;28;20485;-76
2022/10/05 04:31:40;;;;;;;3.47;1.67;;;13.20;90.70;;;;;;4990354;28;20458;-76
2022/10/05 04:34:19;;;;;;;4.00;2.40;;;13.20;90.60;;;;;;4998114;28;20030;-76
2022/10/05 04:36:54;;;;;;;3.80;1.88;;;13.20;90.60;;;;;;4989980;28;20026;-76
2022/10/05 04:40:03;;;;;;;4.43;1.75;;;13.30;90.60;;;;;;4989777;28;20107;-76
2022/10/05 04:42:39;;;;;;;4.00;1.95;;;13.30;90.40;;;;;;4988892;28;20042;-76
2022/10/05 04:45:31;;;;;;;6.78;1.95;;;13.30;90.40;;;;;;4996847;28;20393;-76
2022/10/05 04:48:05;;;;;;;6.93;2.38;;;13.30;90.30;;;;;;4986889;28;20045;-75
2022/10/05 04:51:02;;;;;;;3.75;2.25;;;13.30;90.40;;;;;;4988452;28;20116;-75
2022/10/05 04:53:35;;;;;;;6.03;2.25;;;13.30;90.40;;;;;;4991140;28;20103;-75
2022/10/05 04:56:04;;;;;;;5.13;1.90;;;13.30;90.30;;;;;;4998029;28;20025;-75
2022/10/05 04:58:36;;;;;;;4.93;2.22;;;13.30;90.40;;;;;;4991035;28;20411;-75
2022/10/05 05:01:14;;;;;;;7.53;2.58;;;13.30;90.50;;;;;;4997179;28;20061;-76
2022/10/05 05:03:40;;;;;;;4.90;2.10;;;13.30;90.50;;;;;;4992250;28;20030;-76
2022/10/05 05:06:23;;;;;;;3.33;1.60;;;13.30;90.30;;;;;;4992987;28;20096;-76
2022/10/05 05:09:21;;;;;;;3.17;2.20;;;13.30;90.30;;;;;;4993674;28;20037;-76
2022/10/05 05:12:12;;;;;;;2.30;1.70;;;13.40;90.50;;;;;;4990238;28;20037;-75
2022/10/05 05:14:58;;;;;;;7.80;2.17;;;13.30;90.60;;;;;;4980978;28;20597;-76
2022/10/05 05:17:40;;;;;;;4.73;2.53;;;13.30;90.50;;;;;;4985436;28;20064;-75
2022/10/05 05:20:21;;;;;;;5.63;1.90;;;13.30;90.40;;;;;;4984969;28;20045;-75
2022/10/05 05:23:06;;;;;;;2.95;2.05;;;13.30;90.40;;;;;;4993007;28;20801;-74
2022/10/05 05:25:39;;;;;;;3.30;1.90;;;13.30;90.40;;;;;;4982047;28;20029;-75
2022/10/05 05:28:26;;;;;;;3.47;1.63;;;13.30;90.30;;;;;;4986074;28;20445;-75
2022/10/05 05:31:12;;;;;;;;;;;13.30;90.30;;;;;;4991280;28;20129;-75
2022/10/05 05:34:17;;;;;;;4.53;1.80;;;13.30;90.40;;;;;;4961726;28;19928;-75
2022/10/05 05:36:50;;;;;;;4.47;1.80;;;13.30;90.30;;;;;;4979420;28;20041;-75
2022/10/05 05:39:32;;;;;;;2.78;1.55;;;13.30;90.30;;;;;;4987928;28;20030;-75
2022/10/05 05:42:00;;;;;;;3.92;1.90;;;13.30;90.20;;;;;;4988143;28;20030;-75
2022/10/05 05:44:38;;;;;;;3.58;2.03;;;13.30;90.20;;;;;;4992740;28;20034;-75
2022/10/05 05:47:18;;;;;;;4.28;2.17;;;13.40;90.10;;;;;;4995299;28;20116;-76
2022/10/05 05:50:23;;;;;;;5.22;2.50;;;13.40;90.10;;;;;;4992229;28;20038;-75
2022/10/05 05:53:09;;;;;;;5.60;2.20;;;13.40;89.80;;;;;;4996849;28;20438;-76
2022/10/05 05:55:39;;;;;;;4.38;1.88;;;13.40;90.00;;;;;;4991983;28;20052;-75
2022/10/05 05:58:27;;;;;;;3.33;1.80;;;13.40;90.00;;;;;;4988686;28;20049;-75
2022/10/05 06:01:09;;;;;;;4.88;2.08;;;13.40;90.00;;;;;;4984716;28;20117;-75
2022/10/05 06:03:52;;;;;;;5.18;1.73;;;13.50;89.80;;;;;;4985878;28;20445;-76
2022/10/05 06:06:22;;;;;;;5.05;1.98;;;13.40;89.80;;;;;;4992933;28;20066;-75
2022/10/05 06:08:57;;;;;;;6.22;1.80;;;13.40;90.00;;;;;;4991033;28;20073;-72
2022/10/05 06:11:47;;;;;;;4.40;2.00;;;13.40;90.10;;;;;;4992492;28;20122;-75
2022/10/05 06:14:32;;;;;;;4.47;2.00;;;13.40;90.10;;;;;;4971599;28;20153;-75
2022/10/05 06:17:16;;;;;;;3.90;1.98;;;13.50;89.50;;;;;;4987739;28;20429;-75
2022/10/05 06:19:44;;;;;;;3.05;2.13;;;13.50;90.10;;;;;;4999765;28;20030;-76
2022/10/05 06:22:34;;;;;;;7.32;2.20;;;13.50;89.90;;;;;;4985724;28;20030;-75
2022/10/05 06:25:03;;;;;;;3.70;1.92;;;13.50;89.90;;;;;;4992946;28;20026;-75
2022/10/05 06:27:36;;;;;;;6.68;1.80;;;13.60;90.00;;;;;;4991603;28;20149;-75
2022/10/05 06:30:06;;;;;;;4.32;1.95;;;13.60;90.00;;;;;;4991957;28;20129;-75
2022/10/05 06:32:46;;;;;;;4.88;1.85;;;13.70;89.80;;;;;;4987195;28;20455;-76
2022/10/05 06:35:29;;;;;;;4.70;2.05;;;13.70;90.10;;;;;;4989845;28;20038;-76
2022/10/05 06:38:04;;;;;;;4.35;2.05;;;13.70;89.30;;;;;;5004490;28;20030;-76
2022/10/05 06:40:48;;;;;;;5.85;2.15;;;13.80;89.50;;;;;;4988017;28;20026;-76
2022/10/05 06:43:28;;;;;;;3.75;1.95;;;13.80;89.30;;;;;;4999145;28;20545;-75
2022/10/05 06:46:39;;;;;;;3.85;2.15;;;13.80;89.20;;;;;;4993015;28;20030;-76
2022/10/05 06:49:34;;;;;;;5.35;1.95;;;13.80;89.00;;;;;;4989948;28;20116;-76
2022/10/05 06:52:28;;;;;;;2.90;1.80;;;13.80;88.90;;;;;;4986161;28;20145;-75
2022/10/05 06:54:54;;;;;;;2.90;1.77;;;13.90;89.20;;;;;;5002084;28;20218;-76
2022/10/05 06:57:47;;;;;;;5.90;2.10;;;13.90;89.20;;;;;;4987827;28;20505;-76
2022/10/05 07:00:20;;;;;;;2.75;1.73;;;13.90;89.00;;;;;;4996525;28;20061;-76
2022/10/05 07:03:04;;;;;;;4.30;1.60;;;14.00;88.90;;;;;;4988208;28;20100;-76
2022/10/05 07:05:59;;;;;;;5.20;2.17;;;14.00;88.60;;;;;;5001270;28;20520;-76
2022/10/05 07:08:46;;;;;;;3.78;1.80;;;14.00;88.60;;;;;;4992233;28;20109;-76
2022/10/05 07:11:33;;;;;;;5.22;1.85;;;14.10;88.40;;;;;;4991965;28;20045;-76
2022/10/05 07:14:12;;;;;;;3.22;1.80;;;14.10;88.70;;;;;;4982571;28;20027;-76
2022/10/05 07:17:01;;;;;;;2.67;1.80;;;14.20;88.60;;;;;;4977966;28;20140;-76
2022/10/05 07:19:48;;;;;;;3.40;1.80;;;14.30;88.20;;;;;;5002369;28;20052;-72
2022/10/05 07:22:46;;;;;;;4.15;1.80;;;14.40;88.00;;;;;;4987181;28;20084;-72
2022/10/05 07:25:27;;;;;;;3.03;1.70;;;14.40;87.50;;;;;;4963780;28;20038;-72
2022/10/05 07:28:02;;;;;;;9.32;2.33;;;14.30;87.90;;;;;;4985328;28;20053;-72
2022/10/05 07:30:33;;;;;;;5.30;1.90;;;14.40;88.20;;;;;;4987677;28;20034;-72
2022/10/05 07:33:12;;;;;;;5.22;1.80;;;14.40;88.30;;;;;;4984158;28;20030;-72
2022/10/05 07:39:00;;;;;;;4.20;2.13;;;14.60;88.20;;;;;;4986027;28;20041;-73
2022/10/05 07:41:46;;;;;;;6.90;1.85;;;14.70;88.10;;;;;;4987625;28;20092;-72
2022/10/05 07:44:23;;;;;;;3.47;1.80;;;14.80;88.00;;;;;;4995668;28;20045;-72
2022/10/05 07:47:07;;;;;;;7.00;2.08;;;14.90;87.20;;;;;;4994176;28;20026;-73
2022/10/05 07:49:51;;;;;;;4.78;2.22;;;14.90;87.20;;;;;;4981840;28;20108;-74
2022/10/05 07:52:33;;;;;;;4.53;1.90;;;14.90;87.50;;;;;;4992731;28;20034;-75
2022/10/05 07:55:32;;;;;;;5.07;2.10;;;15.00;87.40;;;;;;4993441;28;20052;-76
2022/10/05 07:58:32;;;;;;;3.90;1.63;;;15.00;87.60;;;;;;4981507;28;20053;-76
2022/10/05 08:01:15;;;;;;;2.85;1.90;;;15.00;87.30;;;;;;4992930;28;20037;-75
2022/10/05 08:03:57;;;;;;;5.35;2.10;;;15.20;86.20;;;;;;4995337;28;20038;-75
2022/10/05 08:06:44;;;;;;;4.70;2.33;;;15.20;86.20;;;;;;4995967;28;20038;-75
2022/10/05 08:09:21;;;;;;;4.70;2.13;;;15.30;86.70;;;;;;4979746;28;20037;-73
2022/10/05 08:12:01;;;;;;;4.97;2.00;;;15.40;86.40;;;;;;4995969;28;20045;-73
2022/10/05 08:14:37;;;;;;;3.38;2.10;;;15.50;86.80;;;;;;4995538;28;20042;-74
2022/10/05 08:17:17;;;;;;;4.55;2.13;;;15.60;85.90;;;;;;5006589;28;20068;-72
2022/10/05 08:19:51;;;;;;;5.95;2.30;;;15.60;85.60;;;;;;4994182;28;20057;-72
2022/10/05 08:22:27;;;;;;;3.05;2.15;;;15.60;86.20;;;;;;4993742;28;20045;-73
2022/10/05 08:25:08;;;;;;;3.30;1.77;;;15.70;86.70;;;;;;4994895;28;20105;-74
2022/10/05 08:28:08;;;;;;;6.53;1.98;;;15.70;86.60;;;;;;4999674;28;20393;-72
2022/10/05 08:30:48;;;;;;;5.93;1.77;;;15.90;86.00;;;;;;4992059;28;20029;-73
2022/10/05 08:33:17;;;;;;;4.13;2.25;;;16.10;85.00;;;;;;4993860;28;20457;-72
2022/10/05 08:35:47;;;;;;;4.03;1.60;;;16.20;85.20;;;;;;4992417;28;20061;-72
2022/10/05 08:38:15;;;;;;;5.32;2.03;;;16.30;84.00;;;;;;4992808;28;20384;-72
2022/10/05 08:40:47;;;;;;;4.22;1.95;;;16.50;83.50;;;;;;4994515;28;20121;-72
2022/10/05 08:43:31;;;;;;;3.70;1.70;;;16.70;83.90;;;;;;4996344;28;20034;-72
2022/10/05 08:46:18;;;;;;;2.47;1.70;;;16.90;82.60;;;;;;4991470;28;20045;-72
2022/10/05 08:49:23;;;;;;;3.15;2.10;;;17.10;82.40;;;;;;4997324;28;20076;-72
2022/10/05 08:52:16;;;;;;;6.88;2.40;;;17.20;81.50;;;;;;4994353;28;20046;-72
2022/10/05 08:55:16;;;;;;;3.63;2.00;;;17.20;80.10;;;;;;4995263;28;20506;-72
2022/10/05 08:58:03;;;;;;;5.57;2.22;;;17.20;80.90;;;;;;4992366;28;20121;-74
2022/10/05 09:01:00;;;;;;;8.32;1.75;;;17.40;79.20;;;;;;4987105;28;20494;-74
2022/10/05 09:03:45;;;;;;;4.05;2.25;;;17.30;79.50;;;;;;4980297;28;20034;-74
2022/10/05 09:06:14;;;;;;;6.93;2.47;;;17.20;79.40;;;;;;4987986;28;20116;-74
2022/10/05 09:09:05;;;;;;;6.95;1.83;;;17.20;80.70;;;;;;4990730;28;20058;-75
2022/10/05 09:11:35;;;;;;;3.38;1.92;;;17.40;80.40;;;;;;4995062;28;20129;-73
2022/10/05 09:14:28;;;;;;;7.47;2.17;;;17.40;80.20;;;;;;4994062;28;20040;-73
2022/10/05 09:17:42;;;;;;;6.25;1.80;;;17.50;78.90;;;;;;4988751;28;20049;-73
2022/10/05 09:20:20;;;;;;;4.40;2.50;;;17.60;79.70;;;;;;4921848;28;20072;-73
2022/10/05 09:23:07;;;;;;;3.28;2.03;;;17.70;79.00;;;;;;4991007;28;20059;-73
2022/10/05 09:25:57;;;;;;;1.98;1.70;;;17.70;78.60;;;;;;4993244;28;20034;-73
2022/10/05 09:28:41;;;;;;;3.33;1.88;;;17.70;79.60;;;;;;4988238;28;20040;-74
2022/10/05 09:31:16;;;;;;;2.58;1.85;;;17.60;79.20;;;;;;4988548;28;20379;-73
2022/10/05 09:34:14;;;;;;;3.45;1.70;;;17.60;79.30;;;;;;4991086;28;20044;-73
2022/10/05 09:37:18;;;;;;;3.13;1.85;;;17.70;81.40;;;;;;4956811;28;20041;-73
2022/10/05 09:39:59;;;;;;;7.68;2.00;;;18.10;80.80;;;;;;4988088;28;20121;-72
2022/10/05 09:42:30;;;;;;;4.22;1.98;;;18.40;78.40;;;;;;4989552;28;20030;-68
2022/10/05 09:45:20;;;;;;;4.50;2.20;;;18.60;78.00;;;;;;4988608;28;20030;-71
2022/10/05 09:48:20;;;;;;;5.75;2.10;;;18.80;77.30;;;;;;4988056;28;20049;-70
2022/10/05 09:50:53;;;;;;;7.45;1.67;;;18.90;75.70;;;;;;4988477;28;20046;-70
2022/10/05 09:53:45;;;;;;;9.27;2.08;;;18.90;75.80;;;;;;4988090;28;20042;-70
2022/10/05 09:56:23;;;;;;;3.55;1.75;;;18.90;76.60;;;;;;4991424;28;20037;-70
2022/10/05 10:01:27;;;;;;;3.63;1.67;;;19.20;74.60;;;;;;4970303;23;20056;-76
2022/10/05 10:04:14;;;;;;;3.05;1.92;;;19.30;75.60;;;;;;4975380;28;20038;-75
2022/10/05 10:06:52;;;;;;;4.28;2.20;;;19.40;74.80;;;;;;4981380;28;20124;-76
2022/10/05 10:09:36;;;;;;;3.85;2.58;;;19.50;73.50;;;;;;4971875;28;20035;-75
2022/10/05 10:12:23;;;;;;;2.88;1.80;;;19.50;74.40;;;;;;4979296;28;20088;-72
2022/10/05 10:15:08;;;;;;;5.18;2.10;;;19.30;73.90;;;;;;4974003;28;20126;-74
2022/10/05 10:18:12;;;;;;;4.35;2.15;;;19.20;73.70;;;;;;4975746;28;20113;-73
2022/10/05 10:21:06;;;;;;;2.97;2.35;;;18.90;75.50;;;;;;4977689;28;20073;-77
2022/10/05 10:24:10;;;;;;;4.32;1.85;;;18.90;76.00;;;;;;4977832;28;20132;-76
2022/10/05 10:27:17;;;;;;;4.70;1.80;;;19.10;76.60;;;;;;4976583;28;20066;-75
2022/10/05 10:30:13;;;;;;;6.68;1.80;;;19.20;75.40;;;;;;4922335;28;20046;-78
2022/10/05 10:32:51;;;;;;;5.50;2.13;;;19.30;75.20;;;;;;4942341;28;20100;-78
2022/10/05 10:35:31;;;;;;;4.22;1.90;;;19.30;75.50;;;;;;4972813;28;20045;-78
2022/10/05 10:38:06;;;;;;;5.22;2.20;;;19.30;75.40;;;;;;4979967;28;20121;-75
2022/10/05 10:41:07;;;;;;;2.90;1.77;;;19.40;76.00;;;;;;4979813;28;20030;-80
2022/10/05 10:43:38;;;;;;;8.65;1.70;;;19.40;75.30;;;;;;4977590;28;20030;-79
2022/10/05 10:46:27;;;;;;;3.88;2.10;;;19.60;75.30;;;;;;4973560;28;20065;-79
2022/10/05 10:49:10;;;;;;;3.60;1.90;;;19.90;75.00;;;;;;4974227;28;20052;-78
2022/10/05 10:52:00;;;;;;;3.97;2.20;;;20.50;72.80;;;;;;4974106;28;20045;-79
2022/10/05 10:55:19;;;;;;;5.47;2.33;;;20.80;73.10;;;;;;4988517;28;20514;-79
2022/10/05 10:57:45;;;;;;;4.82;2.20;;;20.80;74.90;;;;;;4903799;29;20431;-78
2022/10/05 11:00:43;;;;;;;3.15;1.80;;;20.80;73.20;;;;;;4897117;29;20172;-79
2022/10/05 11:03:25;;;;;;;7.00;2.13;;;20.70;72.70;;;;;;4959927;28;20043;-80
2022/10/05 11:06:15;;;;;;;6.82;2.28;;;20.60;73.00;;;;;;4974851;28;20673;-76
2022/10/05 11:08:53;;;;;;;4.50;2.22;;;20.40;73.30;;;;;;4970753;28;20026;-78
2022/10/05 11:11:49;;;;;;;4.70;1.88;;;20.50;72.80;;;;;;4982368;28;20085;-78
2022/10/05 11:15:00;;;;;;;3.57;2.07;;;20.50;73.60;;;;;;4979756;28;20037;-79
2022/10/05 11:18:06;;;;;;;4.07;2.08;;;20.60;74.30;;;;;;4957277;28;20130;-79
2022/10/05 11:20:37;;;;;;;6.55;2.13;;;20.50;73.60;;;;;;4975718;28;20038;-76
2022/10/05 11:23:12;;;;;;;5.28;2.20;;;20.60;73.40;;;;;;4972087;28;20525;-76
2022/10/05 11:25:53;;;;;;;3.70;2.33;;;20.70;72.90;;;;;;4974684;28;20034;-79
2022/10/05 11:28:26;;;;;;;5.13;1.90;;;20.80;74.20;;;;;;4975459;28;20042;-78
2022/10/05 11:31:25;;;;;;;5.28;2.20;;;20.90;73.10;;;;;;4978137;28;20042;-75
2022/10/05 11:34:08;;;;;;;3.35;2.13;;;21.00;71.60;;;;;;4974417;28;20045;-76
2022/10/05 11:36:53;;;;;;;3.58;1.85;;;21.00;71.70;;;;;;4979320;28;20645;-78
2022/10/05 11:39:38;;;;;;;7.90;2.15;;;20.80;72.30;;;;;;4978319;28;20030;-76
2022/10/05 11:42:29;;;;;;;3.50;2.28;;;20.70;72.30;;;;;;4977172;28;20034;-78
2022/10/05 11:45:20;;;;;;;7.88;2.10;;;20.70;71.30;;;;;;4970222;28;20035;-76
2022/10/05 11:48:20;;;;;;;5.35;2.35;;;20.70;70.80;;;;;;4972714;28;20034;-76
2022/10/05 11:51:10;;;;;;;3.65;1.98;;;20.60;71.70;;;;;;4983336;28;20899;-78
2022/10/05 11:53:59;;;;;;;8.32;2.17;;;20.50;72.00;;;;;;4977733;28;20029;-78
2022/10/05 11:56:39;;;;;;;3.08;2.38;;;20.40;72.90;;;;;;4972664;28;20042;-77
2022/10/05 11:59:38;;;;;;;3.47;2.28;;;20.50;73.30;;;;;;4973115;28;20039;-77
2022/10/05 12:02:24;;;;;;;3.42;1.95;;;20.60;72.80;;;;;;4979718;28;20034;-77
2022/10/05 12:05:10;;;;;;;5.05;2.10;;;20.80;72.50;;;;;;4974642;28;20566;-78
2022/10/05 12:07:53;;;;;;;3.28;1.80;;;20.80;72.10;;;;;;4972108;28;20042;-77
2022/10/05 12:10:37;;;;;;;3.13;2.00;;;20.90;71.20;;;;;;4972906;28;20038;-77
2022/10/05 12:13:12;;;;;;;3.08;2.00;;;20.90;72.40;;;;;;4984453;28;20046;-77
2022/10/05 12:15:41;;;;;;;3.47;1.90;;;20.90;71.10;;;;;;4977714;28;20393;-78
2022/10/05 12:18:22;;;;;;;3.17;1.90;;;21.00;70.50;;;;;;4978672;28;20725;-77
2022/10/05 12:21:10;;;;;;;5.93;1.98;;;21.00;70.00;;;;;;4968264;28;20034;-77
2022/10/05 12:23:41;;;;;;;3.35;2.00;;;21.10;69.50;;;;;;4971289;28;20034;-78
2022/10/05 12:26:35;;;;;;;5.15;1.90;;;21.10;69.50;;;;;;4977112;28;20040;-77
2022/10/05 12:29:12;;;;;;;2.70;1.80;;;21.20;69.50;;;;;;4959768;28;20030;-77
2022/10/05 12:32:17;;;;;;;4.38;2.30;;;21.30;69.70;;;;;;4976371;28;20022;-78
2022/10/05 12:34:55;;;;;;;3.40;2.08;;;21.30;69.60;;;;;;4982010;28;20797;-77
2022/10/05 12:37:32;;;;;;;2.78;2.20;;;21.20;68.10;;;;;;4977507;28;20359;-77
2022/10/05 12:40:04;;;;;;;4.18;1.90;;;21.00;68.80;;;;;;4980588;28;20040;-77
2022/10/05 12:42:39;;;;;;;5.60;1.83;;;20.90;69.10;;;;;;4981567;28;20040;-78
2022/10/05 12:45:36;;;;;;;3.63;2.10;;;20.90;69.40;;;;;;4979126;28;20994;-77
2022/10/05 12:48:11;;;;;;;3.30;1.80;;;20.80;68.60;;;;;;4981990;28;20031;-78
2022/10/05 12:50:48;;;;;;;2.95;1.88;;;20.90;68.10;;;;;;4977132;28;20113;-78
2022/10/05 12:53:48;;;;;;;4.85;1.83;;;21.00;68.50;;;;;;4982825;28;20041;-78
2022/10/05 12:56:34;;;;;;;3.67;2.10;;;21.00;68.40;;;;;;4972393;28;20443;-77
2022/10/05 12:59:13;;;;;;;5.18;1.95;;;21.00;68.00;;;;;;4971666;28;20121;-77
2022/10/05 13:02:04;;;;;;;5.18;1.60;;;21.00;68.70;;;;;;4978558;28;20040;-77
2022/10/05 13:04:40;;;;;;;3.15;1.60;;;21.00;68.60;;;;;;4979601;28;20108;-78
2022/10/05 13:07:18;;;;;;;;;;;21.00;67.20;;;;;;4978848;28;20050;-77
2022/10/05 13:09:44;;;;;;;4.05;1.70;;;20.90;67.00;;;;;;4977546;28;20860;-77
2022/10/05 13:12:46;;;;;;;2.72;1.98;;;20.90;67.70;;;;;;4982122;28;20076;-77
2022/10/05 13:15:21;;;;;;;3.58;2.08;;;20.80;68.10;;;;;;4974748;28;20030;-77
2022/10/05 13:17:49;;;;;;;4.57;2.05;;;20.70;69.30;;;;;;4974146;28;20144;-78
2022/10/05 13:20:30;;;;;;;2.85;2.17;;;20.80;69.40;;;;;;4982554;28;20109;-77
2022/10/05 13:23:14;;;;;;;3.92;2.00;;;20.70;69.20;;;;;;4983335;28;20039;-77
2022/10/05 13:26:06;;;;;;;5.38;1.98;;;20.70;69.50;;;;;;4976145;28;20033;-77
2022/10/05 13:28:52;;;;;;;6.78;2.40;;;20.60;69.90;;;;;;4980225;28;20040;-77
2022/10/05 13:31:25;;;;;;;5.90;2.05;;;20.60;70.20;;;;;;4977886;28;20034;-77
2022/10/05 13:34:06;;;;;;;4.72;2.13;;;20.40;69.00;;;;;;4969166;28;20053;-78
2022/10/05 13:36:47;;;;;;;3.42;2.40;;;20.40;69.60;;;;;;4985201;28;20707;-78
2022/10/05 13:39:39;;;;;;;5.00;1.85;;;20.20;70.00;;;;;;4973361;28;20031;-78
2022/10/05 13:42:18;;;;;;;3.80;2.00;;;20.20;71.80;;;;;;4979409;28;20038;-78
2022/10/05 13:44:53;;;;;;;6.32;2.00;;;20.40;71.70;;;;;;4990927;28;20688;-78
2022/10/05 13:47:24;;;;;;;2.17;1.87;;;20.50;70.20;;;;;;4985166;28;20045;-78
2022/10/05 13:50:01;;;;;;;4.88;1.80;;;20.60;70.30;;;;;;4980167;28;20805;-78
2022/10/05 13:52:55;;;;;;;3.05;1.70;;;20.70;69.30;;;;;;4984769;28;20042;-78
2022/10/05 13:55:44;;;;;;;4.50;1.92;;;20.70;70.10;;;;;;4978499;28;20042;-78
2022/10/05 13:58:41;;;;;;;7.60;1.88;;;20.60;69.80;;;;;;4968486;28;20031;-78
2022/10/05 14:01:15;;;;;;;;;;;20.60;69.70;;;;;;4991596;28;20030;-78
2022/10/05 14:04:05;;;;;;;2.22;1.42;;;20.50;69.10;;;;;;4977335;28;19937;-80
2022/10/05 14:06:33;;;;;;;4.90;2.10;;;20.50;69.60;;;;;;4988609;28;20025;-80
2022/10/05 14:08:59;;;;;;;4.43;2.03;;;20.60;70.30;;;;;;4974031;28;20035;-77
2022/10/05 14:11:34;;;;;;;2.00;1.70;;;20.60;69.40;;;;;;4972634;28;20810;-75
2022/10/05 14:14:12;;;;;;;2.35;1.60;;;20.50;69.40;;;;;;4976575;28;20494;-75